Terminal Aerodrome Forecast
Issued by NWS

Home | Current Version | Previous Version | Graphics & Text | Print | Product List | Glossary On
Versions: 1 2 3 4 5 6 7 8 9 10 11 12 13 14 15 16 17 18 19 20 21 22 23
000
FTUS43 KGRB 241720
TAFAUW
TAF
KAUW 241720Z 2418/2518 16008G14KT P6SM -SHRA BKN080
     FM242100 12009KT P6SM -SHRA SCT022 OVC045
      TEMPO 2421/2423 4SM -SHRA OVC022
     FM242300 10010KT 4SM RA BR BKN009
     FM250200 09009KT 3SM RA BR BKN004 WS012/16035KT
     FM250900 15007KT 2SM -RADZ BR BKN003 WS012/21040KT
     FM251500 24008G14KT P6SM VCSH BKN012=

USA.gov is the U.S. government's official web portal to all federal, state and local government web resources and services.